sensor_id;sensor_type;location;lat;lon;timestamp;pressure;altitude;pressure_sealevel;temperature;humidity
14041;BME280;7095;51.388;6.196;2023-07-31T00:00:06;115728.34;;;-145.32;100.00
14041;BME280;7095;51.388;6.196;2023-07-31T00:02:36;115728.34;;;-145.32;100.00
14041;BME280;7095;51.388;6.196;2023-07-31T00:05:05;115728.34;;;-145.32;100.00
14041;BME280;7095;51.388;6.196;2023-07-31T00:07:34;115728.34;;;-145.32;100.00
14041;BME280;7095;51.388;6.196;2023-07-31T00:10:02;115728.34;;;-145.32;100.00
14041;BME280;7095;51.388;6.196;2023-07-31T00:12:31;115728.34;;;-145.32;100.00
14041;BME280;7095;51.388;6.196;2023-07-31T00:15:01;115728.34;;;-145.32;100.00
14041;BME280;7095;51.388;6.196;2023-07-31T00:17:30;115728.34;;;-145.32;100.00
14041;BME280;7095;51.388;6.196;2023-07-31T00:19:59;115728.34;;;-145.32;100.00
14041;BME280;7095;51.388;6.196;2023-07-31T00:22:27;115728.34;;;-145.32;100.00
14041;BME280;7095;51.388;6.196;2023-07-31T00:24:56;115728.34;;;-145.32;100.00
14041;BME280;7095;51.388;6.196;2023-07-31T00:27:24;115728.34;;;-145.32;100.00
14041;BME280;7095;51.388;6.196;2023-07-31T00:29:53;115728.34;;;-145.32;100.00
14041;BME280;7095;51.388;6.196;2023-07-31T00:32:22;115728.34;;;-145.32;100.00
14041;BME280;7095;51.388;6.196;2023-07-31T00:34:51;115728.34;;;-145.32;100.00
14041;BME280;7095;51.388;6.196;2023-07-31T00:37:19;115728.34;;;-145.32;100.00
14041;BME280;7095;51.388;6.196;2023-07-31T00:39:48;115728.34;;;-145.32;100.00
14041;BME280;7095;51.388;6.196;2023-07-31T00:42:16;115728.34;;;-145.32;100.00
14041;BME280;7095;51.388;6.196;2023-07-31T00:44:45;115728.34;;;-145.32;100.00
14041;BME280;7095;51.388;6.196;2023-07-31T00:47:15;115728.34;;;-145.32;100.00
14041;BME280;7095;51.388;6.196;2023-07-31T00:49:45;115728.34;;;-145.32;100.00
14041;BME280;7095;51.388;6.196;2023-07-31T00:52:14;115728.34;;;-145.32;100.00
14041;BME280;7095;51.388;6.196;2023-07-31T00:54:43;115728.34;;;-145.32;100.00
14041;BME280;7095;51.388;6.196;2023-07-31T00:57:11;115728.34;;;-145.32;100.00
14041;BME280;7095;51.388;6.196;2023-07-31T00:59:40;115728.34;;;-145.32;100.00
14041;BME280;7095;51.388;6.196;2023-07-31T01:02:09;115728.34;;;-145.32;100.00
14041;BME280;7095;51.388;6.196;2023-07-31T01:04:37;115728.34;;;-145.32;100.00
14041;BME280;7095;51.388;6.196;2023-07-31T01:07:12;115726.31;;;-145.32;100.00
14041;BME280;7095;51.388;6.196;2023-07-31T01:09:45;115467.22;;;-145.32;100.00
14041;BME280;7095;51.388;6.196;2023-07-31T01:12:16;114949.09;;;-145.32;100.00
14041;BME280;7095;51.388;6.196;2023-07-31T01:14:52;114172.03;;;-145.32;100.00
14041;BME280;7095;51.388;6.196;2023-07-31T01:17:30;114172.03;;;-145.32;100.00
14041;BME280;7095;51.388;6.196;2023-07-31T01:20:01;113913.03;;;-145.32;100.00
14041;BME280;7095;51.388;6.196;2023-07-31T01:22:45;113654.06;;;-145.32;100.00
14041;BME280;7095;51.388;6.196;2023-07-31T01:25:32;113136.22;;;-145.32;100.00
14041;BME280;7095;51.388;6.196;2023-07-31T01:28:09;113136.22;;;-145.32;100.00
14041;BME280;7095;51.388;6.196;2023-07-31T01:30:44;113136.22;;;-145.32;100.00
14041;BME280;7095;51.388;6.196;2023-07-31T01:33:14;112877.31;;;-145.32;100.00
14041;BME280;7095;51.388;6.196;2023-07-31T01:35:44;112877.31;;;-145.32;100.00
14041;BME280;7095;51.388;6.196;2023-07-31T01:38:13;112359.53;;;-145.32;100.00
14041;BME280;7095;51.388;6.196;2023-07-31T01:40:42;111583.06;;;-145.32;100.00
14041;BME280;7095;51.388;6.196;2023-07-31T01:43:12;111583.06;;;-145.32;100.00
14041;BME280;7095;51.388;6.196;2023-07-31T01:45:40;111065.50;;;-145.32;100.00
14041;BME280;7095;51.388;6.196;2023-07-31T01:48:09;110806.75;;;-145.32;100.00
14041;BME280;7095;51.388;6.196;2023-07-31T01:50:38;110806.75;;;-145.32;100.00
14041;BME280;7095;51.388;6.196;2023-07-31T01:53:06;110806.75;;;-145.32;100.00
14041;BME280;7095;51.388;6.196;2023-07-31T01:55:34;110289.28;;;-145.32;100.00
14041;BME280;7095;51.388;6.196;2023-07-31T01:58:03;110030.59;;;-145.32;100.00
14041;BME280;7095;51.388;6.196;2023-07-31T02:00:33;109513.28;;;-145.32;100.00
14041;BME280;7095;51.388;6.196;2023-07-31T02:03:01;108737.41;;;-145.32;100.00
14041;BME280;7095;51.388;6.196;2023-07-31T02:05:30;108220.28;;;-145.32;100.00
14041;BME280;7095;51.388;6.196;2023-07-31T02:07:59;108737.41;;;-145.32;100.00
14041;BME280;7095;51.388;6.196;2023-07-31T02:10:30;108220.28;;;-145.32;100.00
14041;BME280;7095;51.388;6.196;2023-07-31T02:12:59;108220.28;;;-145.32;100.00
14041;BME280;7095;51.388;6.196;2023-07-31T02:15:27;108220.28;;;-145.32;100.00
14041;BME280;7095;51.388;6.196;2023-07-31T02:17:58;108220.28;;;-145.32;100.00
14041;BME280;7095;51.388;6.196;2023-07-31T02:20:26;108220.28;;;-145.32;100.00
14041;BME280;7095;51.388;6.196;2023-07-31T02:22:55;107703.22;;;-145.32;100.00
14041;BME280;7095;51.388;6.196;2023-07-31T02:25:25;107186.22;;;-145.32;100.00
14041;BME280;7095;51.388;6.196;2023-07-31T02:27:53;107703.22;;;-145.32;100.00
14041;BME280;7095;51.388;6.196;2023-07-31T02:30:22;107444.69;;;-145.32;100.00
14041;BME280;7095;51.388;6.196;2023-07-31T02:32:50;107444.69;;;-145.32;100.00
14041;BME280;7095;51.388;6.196;2023-07-31T02:35:20;107703.22;;;-145.32;100.00
14041;BME280;7095;51.388;6.196;2023-07-31T02:37:49;107444.69;;;-145.32;100.00
14041;BME280;7095;51.388;6.196;2023-07-31T02:40:19;107703.22;;;-145.32;100.00
14041;BME280;7095;51.388;6.196;2023-07-31T02:42:47;107703.22;;;-145.32;100.00
14041;BME280;7095;51.388;6.196;2023-07-31T02:45:16;107961.72;;;-145.32;100.00
14041;BME280;7095;51.388;6.196;2023-07-31T02:47:44;108220.28;;;-145.32;100.00
14041;BME280;7095;51.388;6.196;2023-07-31T02:50:13;108220.28;;;-145.32;100.00
14041;BME280;7095;51.388;6.196;2023-07-31T02:52:43;108737.41;;;-145.32;100.00
14041;BME280;7095;51.388;6.196;2023-07-31T02:55:11;108737.41;;;-145.32;100.00
14041;BME280;7095;51.388;6.196;2023-07-31T02:57:40;108737.41;;;-145.32;100.00
14041;BME280;7095;51.388;6.196;2023-07-31T03:00:09;108478.84;;;-145.32;100.00
14041;BME280;7095;51.388;6.196;2023-07-31T03:02:37;108996.00;;;-145.32;100.00
14041;BME280;7095;51.388;6.196;2023-07-31T03:05:06;108996.00;;;-145.32;100.00
14041;BME280;7095;51.388;6.196;2023-07-31T03:07:35;109254.63;;;-145.32;100.00
14041;BME280;7095;51.388;6.196;2023-07-31T03:10:07;108996.00;;;-145.32;100.00
14041;BME280;7095;51.388;6.196;2023-07-31T03:12:35;109254.63;;;-145.32;100.00
14041;BME280;7095;51.388;6.196;2023-07-31T03:15:04;109254.63;;;-145.32;100.00
14041;BME280;7095;51.388;6.196;2023-07-31T03:17:33;108996.00;;;-145.32;100.00
14041;BME280;7095;51.388;6.196;2023-07-31T03:20:03;108220.28;;;-145.32;100.00
14041;BME280;7095;51.388;6.196;2023-07-31T03:22:31;108220.28;;;-145.32;100.00
14041;BME280;7095;51.388;6.196;2023-07-31T03:25:02;107961.72;;;-145.32;100.00
14041;BME280;7095;51.388;6.196;2023-07-31T03:27:32;107961.72;;;-145.32;100.00
14041;BME280;7095;51.388;6.196;2023-07-31T03:30:00;107703.22;;;-145.32;100.00
14041;BME280;7095;51.388;6.196;2023-07-31T03:32:30;107444.69;;;-145.32;100.00
14041;BME280;7095;51.388;6.196;2023-07-31T03:35:00;107703.22;;;-145.32;100.00
14041;BME280;7095;51.388;6.196;2023-07-31T03:37:29;107703.22;;;-145.32;100.00
14041;BME280;7095;51.388;6.196;2023-07-31T03:39:57;107703.22;;;-145.32;100.00
14041;BME280;7095;51.388;6.196;2023-07-31T03:42:26;107444.69;;;-145.32;100.00
14041;BME280;7095;51.388;6.196;2023-07-31T03:44:56;107961.72;;;-145.32;100.00
14041;BME280;7095;51.388;6.196;2023-07-31T03:47:24;108220.28;;;-145.32;100.00
14041;BME280;7095;51.388;6.196;2023-07-31T03:49:53;108737.41;;;-145.32;100.00
14041;BME280;7095;51.388;6.196;2023-07-31T03:52:22;108996.00;;;-145.32;100.00
14041;BME280;7095;51.388;6.196;2023-07-31T03:54:50;108996.00;;;-145.32;100.00
14041;BME280;7095;51.388;6.196;2023-07-31T03:57:19;109254.63;;;-145.32;100.00
14041;BME280;7095;51.388;6.196;2023-07-31T03:59:47;109513.28;;;-145.32;100.00
14041;BME280;7095;51.388;6.196;2023-07-31T04:02:17;109513.28;;;-145.32;100.00
14041;BME280;7095;51.388;6.196;2023-07-31T04:04:46;109513.28;;;-145.32;100.00
14041;BME280;7095;51.388;6.196;2023-07-31T04:07:15;109771.94;;;-145.32;100.00
14041;BME280;7095;51.388;6.196;2023-07-31T04:09:43;109771.94;;;-145.32;100.00
14041;BME280;7095;51.388;6.196;2023-07-31T04:12:12;110030.59;;;-145.32;100.00
14041;BME280;7095;51.388;6.196;2023-07-31T04:14:40;109771.94;;;-145.32;100.00
14041;BME280;7095;51.388;6.196;2023-07-31T04:17:08;110030.59;;;-145.32;100.00
14041;BME280;7095;51.388;6.196;2023-07-31T04:19:40;110030.59;;;-145.32;100.00
14041;BME280;7095;51.388;6.196;2023-07-31T04:22:08;110030.59;;;-145.32;100.00
14041;BME280;7095;51.388;6.196;2023-07-31T04:24:36;109771.94;;;-145.32;100.00
14041;BME280;7095;51.388;6.196;2023-07-31T04:27:05;109513.28;;;-145.32;100.00
14041;BME280;7095;51.388;6.196;2023-07-31T04:29:34;109254.63;;;-145.32;100.00
14041;BME280;7095;51.388;6.196;2023-07-31T04:32:02;109254.63;;;-145.32;100.00
14041;BME280;7095;51.388;6.196;2023-07-31T04:34:31;109254.63;;;-145.32;100.00
14041;BME280;7095;51.388;6.196;2023-07-31T04:37:01;108996.00;;;-145.32;100.00
14041;BME280;7095;51.388;6.196;2023-07-31T04:39:29;108996.00;;;-145.32;100.00
14041;BME280;7095;51.388;6.196;2023-07-31T04:41:58;108996.00;;;-145.32;100.00
14041;BME280;7095;51.388;6.196;2023-07-31T04:44:26;108996.00;;;-145.32;100.00
14041;BME280;7095;51.388;6.196;2023-07-31T04:46:55;109513.28;;;-145.32;100.00
14041;BME280;7095;51.388;6.196;2023-07-31T04:49:23;109513.28;;;-145.32;100.00
14041;BME280;7095;51.388;6.196;2023-07-31T04:51:52;109513.28;;;-145.32;100.00
14041;BME280;7095;51.388;6.196;2023-07-31T04:54:22;109513.28;;;-145.32;100.00
14041;BME280;7095;51.388;6.196;2023-07-31T04:56:53;109513.28;;;-145.32;100.00
14041;BME280;7095;51.388;6.196;2023-07-31T04:59:22;109771.94;;;-145.32;100.00
14041;BME280;7095;51.388;6.196;2023-07-31T05:01:50;109771.94;;;-145.32;100.00
14041;BME280;7095;51.388;6.196;2023-07-31T05:04:19;109771.94;;;-145.32;100.00
14041;BME280;7095;51.388;6.196;2023-07-31T05:06:48;109513.28;;;-145.32;100.00
14041;BME280;7095;51.388;6.196;2023-07-31T05:09:16;109513.28;;;-145.32;100.00
14041;BME280;7095;51.388;6.196;2023-07-31T05:11:47;109254.63;;;-145.32;100.00
14041;BME280;7095;51.388;6.196;2023-07-31T05:14:16;108996.00;;;-145.32;100.00
14041;BME280;7095;51.388;6.196;2023-07-31T05:16:44;108737.41;;;-145.32;100.00
14041;BME280;7095;51.388;6.196;2023-07-31T05:19:13;108737.41;;;-145.32;100.00
14041;BME280;7095;51.388;6.196;2023-07-31T05:21:42;108737.41;;;-145.32;100.00
14041;BME280;7095;51.388;6.196;2023-07-31T05:24:10;108478.84;;;-145.32;100.00
14041;BME280;7095;51.388;6.196;2023-07-31T05:26:39;108996.00;;;-145.32;100.00
14041;BME280;7095;51.388;6.196;2023-07-31T05:29:09;109254.63;;;-145.32;100.00
14041;BME280;7095;51.388;6.196;2023-07-31T05:31:38;109513.28;;;-145.32;100.00
14041;BME280;7095;51.388;6.196;2023-07-31T05:34:07;109771.94;;;-145.32;100.00
14041;BME280;7095;51.388;6.196;2023-07-31T05:36:35;109771.94;;;-145.32;100.00
14041;BME280;7095;51.388;6.196;2023-07-31T05:39:04;110030.59;;;-145.32;100.00
14041;BME280;7095;51.388;6.196;2023-07-31T05:41:35;109771.94;;;-145.32;100.00
14041;BME280;7095;51.388;6.196;2023-07-31T05:44:04;109771.94;;;-145.32;100.00
14041;BME280;7095;51.388;6.196;2023-07-31T05:46:34;109771.94;;;-145.32;100.00
14041;BME280;7095;51.388;6.196;2023-07-31T05:49:02;110030.59;;;-145.32;100.00
14041;BME280;7095;51.388;6.196;2023-07-31T05:51:31;110548.00;;;-145.32;100.00
14041;BME280;7095;51.388;6.196;2023-07-31T05:53:59;111065.50;;;-145.32;100.00
14041;BME280;7095;51.388;6.196;2023-07-31T05:56:28;111841.88;;;-145.32;100.00
14041;BME280;7095;51.388;6.196;2023-07-31T05:58:56;112359.53;;;-145.32;100.00
14041;BME280;7095;51.388;6.196;2023-07-31T06:01:25;112877.31;;;-145.32;100.00
14041;BME280;7095;51.388;6.196;2023-07-31T06:03:55;113395.13;;;-145.32;100.00
14041;BME280;7095;51.388;6.196;2023-07-31T06:06:24;113654.06;;;-145.32;100.00
14041;BME280;7095;51.388;6.196;2023-07-31T06:08:52;114172.03;;;-145.32;100.00
14041;BME280;7095;51.388;6.196;2023-07-31T06:11:21;114431.03;;;-145.32;100.00
14041;BME280;7095;51.388;6.196;2023-07-31T06:13:50;114690.03;;;-145.32;100.00
14041;BME280;7095;51.388;6.196;2023-07-31T06:16:18;114949.09;;;-145.32;100.00
14041;BME280;7095;51.388;6.196;2023-07-31T06:18:48;114949.09;;;-145.32;100.00
14041;BME280;7095;51.388;6.196;2023-07-31T06:21:18;115208.13;;;-145.32;100.00
14041;BME280;7095;51.388;6.196;2023-07-31T06:23:47;115467.22;;;-145.32;100.00
14041;BME280;7095;51.388;6.196;2023-07-31T06:26:15;115467.22;;;-145.32;100.00
14041;BME280;7095;51.388;6.196;2023-07-31T06:28:44;115467.22;;;-145.32;100.00
14041;BME280;7095;51.388;6.196;2023-07-31T06:31:12;115726.31;;;-145.32;100.00
14041;BME280;7095;51.388;6.196;2023-07-31T06:33:41;115726.31;;;-145.32;100.00
14041;BME280;7095;51.388;6.196;2023-07-31T06:36:09;115728.34;;;-145.32;100.00
14041;BME280;7095;51.388;6.196;2023-07-31T06:38:39;115728.34;;;-145.32;100.00
14041;BME280;7095;51.388;6.196;2023-07-31T06:41:08;115728.34;;;-145.32;100.00
14041;BME280;7095;51.388;6.196;2023-07-31T06:43:37;115728.34;;;-145.32;100.00
14041;BME280;7095;51.388;6.196;2023-07-31T06:46:06;115728.34;;;-145.32;100.00
14041;BME280;7095;51.388;6.196;2023-07-31T06:48:35;115728.34;;;-145.32;100.00
14041;BME280;7095;51.388;6.196;2023-07-31T06:51:04;115728.34;;;-145.32;100.00
14041;BME280;7095;51.388;6.196;2023-07-31T06:53:33;115728.34;;;-145.32;100.00
14041;BME280;7095;51.388;6.196;2023-07-31T06:56:03;115728.34;;;-145.32;100.00
14041;BME280;7095;51.388;6.196;2023-07-31T06:58:32;115728.34;;;-145.32;100.00
14041;BME280;7095;51.388;6.196;2023-07-31T07:01:01;115728.34;;;-145.32;100.00
14041;BME280;7095;51.388;6.196;2023-07-31T07:03:29;115728.34;;;-145.32;100.00
14041;BME280;7095;51.388;6.196;2023-07-31T07:05:58;115728.34;;;-145.32;100.00
14041;BME280;7095;51.388;6.196;2023-07-31T07:08:26;115728.34;;;-145.32;100.00
14041;BME280;7095;51.388;6.196;2023-07-31T07:10:55;115728.34;;;-145.32;100.00
14041;BME280;7095;51.388;6.196;2023-07-31T07:13:25;115728.34;;;-145.32;100.00
14041;BME280;7095;51.388;6.196;2023-07-31T07:15:54;115728.34;;;-145.32;100.00
14041;BME280;7095;51.388;6.196;2023-07-31T07:18:22;115728.34;;;-145.32;100.00
14041;BME280;7095;51.388;6.196;2023-07-31T07:20:52;115728.34;;;-145.32;100.00
14041;BME280;7095;51.388;6.196;2023-07-31T07:23:21;115728.34;;;-145.32;100.00
14041;BME280;7095;51.388;6.196;2023-07-31T07:25:50;115728.34;;;-145.32;100.00
14041;BME280;7095;51.388;6.196;2023-07-31T07:28:20;115728.34;;;-145.32;100.00
14041;BME280;7095;51.388;6.196;2023-07-31T07:30:52;115728.34;;;-145.32;100.00
14041;BME280;7095;51.388;6.196;2023-07-31T07:33:21;115728.34;;;-145.32;100.00
14041;BME280;7095;51.388;6.196;2023-07-31T07:35:50;115728.34;;;-145.32;100.00
14041;BME280;7095;51.388;6.196;2023-07-31T07:38:18;115728.34;;;-145.32;100.00
14041;BME280;7095;51.388;6.196;2023-07-31T07:40:47;115728.34;;;-145.32;100.00
14041;BME280;7095;51.388;6.196;2023-07-31T07:43:17;115728.34;;;-145.32;100.00
14041;BME280;7095;51.388;6.196;2023-07-31T07:45:46;115728.34;;;-145.32;100.00
14041;BME280;7095;51.388;6.196;2023-07-31T07:48:16;115728.34;;;-145.32;100.00
14041;BME280;7095;51.388;6.196;2023-07-31T07:50:45;115728.34;;;-145.32;100.00
14041;BME280;7095;51.388;6.196;2023-07-31T07:53:14;115728.34;;;-145.32;100.00
14041;BME280;7095;51.388;6.196;2023-07-31T07:55:42;115728.34;;;-145.32;100.00
14041;BME280;7095;51.388;6.196;2023-07-31T07:58:11;115728.34;;;-145.32;100.00
14041;BME280;7095;51.388;6.196;2023-07-31T08:00:39;115728.34;;;-145.32;100.00
14041;BME280;7095;51.388;6.196;2023-07-31T08:03:08;115728.34;;;-145.32;100.00
14041;BME280;7095;51.388;6.196;2023-07-31T08:05:38;115728.34;;;-145.32;100.00
14041;BME280;7095;51.388;6.196;2023-07-31T08:08:07;115728.34;;;-145.32;100.00
14041;BME280;7095;51.388;6.196;2023-07-31T08:10:35;115728.34;;;-145.32;100.00
14041;BME280;7095;51.388;6.196;2023-07-31T08:13:04;115728.34;;;-145.32;100.00
14041;BME280;7095;51.388;6.196;2023-07-31T08:15:33;115728.34;;;-145.32;100.00
14041;BME280;7095;51.388;6.196;2023-07-31T08:18:01;115728.34;;;-145.32;100.00
14041;BME280;7095;51.388;6.196;2023-07-31T08:20:30;115728.34;;;-145.32;100.00
14041;BME280;7095;51.388;6.196;2023-07-31T08:23:00;115728.34;;;-145.32;100.00
14041;BME280;7095;51.388;6.196;2023-07-31T08:25:29;115728.34;;;-145.32;100.00
14041;BME280;7095;51.388;6.196;2023-07-31T08:27:57;115728.34;;;-145.32;100.00
14041;BME280;7095;51.388;6.196;2023-07-31T08:30:26;115728.34;;;-145.32;100.00
14041;BME280;7095;51.388;6.196;2023-07-31T08:32:54;115728.34;;;-145.32;100.00
14041;BME280;7095;51.388;6.196;2023-07-31T08:35:24;115728.34;;;-145.32;100.00
14041;BME280;7095;51.388;6.196;2023-07-31T08:37:52;115728.34;;;-145.32;100.00
14041;BME280;7095;51.388;6.196;2023-07-31T08:40:22;115728.34;;;-145.32;100.00
14041;BME280;7095;51.388;6.196;2023-07-31T08:42:53;115728.34;;;-145.32;100.00
14041;BME280;7095;51.388;6.196;2023-07-31T08:45:24;115728.34;;;-145.32;100.00
14041;BME280;7095;51.388;6.196;2023-07-31T08:47:52;115728.34;;;-145.32;100.00
14041;BME280;7095;51.388;6.196;2023-07-31T08:50:21;115728.34;;;-145.32;100.00
14041;BME280;7095;51.388;6.196;2023-07-31T08:52:51;115728.34;;;-145.32;100.00
14041;BME280;7095;51.388;6.196;2023-07-31T08:55:24;115728.34;;;-145.32;100.00
14041;BME280;7095;51.388;6.196;2023-07-31T08:57:54;115728.34;;;-145.32;100.00
14041;BME280;7095;51.388;6.196;2023-07-31T09:00:24;115728.34;;;-145.32;100.00
14041;BME280;7095;51.388;6.196;2023-07-31T09:02:57;115728.34;;;-145.32;100.00
14041;BME280;7095;51.388;6.196;2023-07-31T09:05:26;115728.34;;;-145.32;100.00
14041;BME280;7095;51.388;6.196;2023-07-31T09:07:57;115728.34;;;-145.32;100.00
14041;BME280;7095;51.388;6.196;2023-07-31T09:10:27;115728.34;;;-145.32;100.00
14041;BME280;7095;51.388;6.196;2023-07-31T09:12:56;115728.34;;;-145.32;100.00
14041;BME280;7095;51.388;6.196;2023-07-31T09:15:27;115728.34;;;-145.32;100.00
14041;BME280;7095;51.388;6.196;2023-07-31T09:18:05;115728.34;;;-145.32;100.00
14041;BME280;7095;51.388;6.196;2023-07-31T09:20:34;115728.34;;;-145.32;100.00
14041;BME280;7095;51.388;6.196;2023-07-31T09:23:06;115728.34;;;-145.32;100.00
14041;BME280;7095;51.388;6.196;2023-07-31T09:25:38;115728.34;;;-145.32;100.00
14041;BME280;7095;51.388;6.196;2023-07-31T09:28:08;115728.34;;;-145.32;100.00
14041;BME280;7095;51.388;6.196;2023-07-31T09:30:48;115728.34;;;-145.32;100.00
14041;BME280;7095;51.388;6.196;2023-07-31T09:33:18;115728.34;;;-145.32;100.00
14041;BME280;7095;51.388;6.196;2023-07-31T09:35:47;115728.34;;;-145.32;100.00
14041;BME280;7095;51.388;6.196;2023-07-31T09:38:16;115728.34;;;-145.32;100.00
14041;BME280;7095;51.388;6.196;2023-07-31T09:40:47;115728.34;;;-145.32;100.00
14041;BME280;7095;51.388;6.196;2023-07-31T09:43:18;115728.34;;;-145.32;100.00
14041;BME280;7095;51.388;6.196;2023-07-31T09:45:47;115728.34;;;-145.32;100.00
14041;BME280;7095;51.388;6.196;2023-07-31T09:48:17;115728.34;;;-145.32;100.00
14041;BME280;7095;51.388;6.196;2023-07-31T09:50:47;115728.34;;;-145.32;100.00
14041;BME280;7095;51.388;6.196;2023-07-31T09:53:16;115728.34;;;-145.32;100.00
14041;BME280;7095;51.388;6.196;2023-07-31T09:55:46;115728.34;;;-145.32;100.00
14041;BME280;7095;51.388;6.196;2023-07-31T09:58:15;115726.31;;;-145.32;100.00
14041;BME280;7095;51.388;6.196;2023-07-31T10:00:44;115726.31;;;-145.32;100.00
14041;BME280;7095;51.388;6.196;2023-07-31T10:03:14;115467.22;;;-145.32;100.00
14041;BME280;7095;51.388;6.196;2023-07-31T10:05:46;115467.22;;;-145.32;100.00
14041;BME280;7095;51.388;6.196;2023-07-31T10:08:20;115467.22;;;-145.32;100.00
14041;BME280;7095;51.388;6.196;2023-07-31T10:10:51;114949.09;;;-145.32;100.00
14041;BME280;7095;51.388;6.196;2023-07-31T10:13:20;114690.03;;;-145.32;100.00
14041;BME280;7095;51.388;6.196;2023-07-31T10:15:50;114172.03;;;-145.32;100.00
14041;BME280;7095;51.388;6.196;2023-07-31T10:18:19;114431.03;;;-145.32;100.00
14041;BME280;7095;51.388;6.196;2023-07-31T10:20:49;114172.03;;;-145.32;100.00
14041;BME280;7095;51.388;6.196;2023-07-31T10:23:18;113654.06;;;-145.32;100.00
14041;BME280;7095;51.388;6.196;2023-07-31T10:25:47;113654.06;;;-145.32;100.00
14041;BME280;7095;51.388;6.196;2023-07-31T10:28:18;113136.22;;;-145.32;100.00
14041;BME280;7095;51.388;6.196;2023-07-31T10:30:47;112618.41;;;-145.32;100.00
14041;BME280;7095;51.388;6.196;2023-07-31T10:33:17;112100.69;;;-145.32;100.00
14041;BME280;7095;51.388;6.196;2023-07-31T10:35:47;111841.88;;;-145.32;100.00
14041;BME280;7095;51.388;6.196;2023-07-31T10:38:15;111065.50;;;-145.32;100.00
14041;BME280;7095;51.388;6.196;2023-07-31T10:40:44;111065.50;;;-145.32;100.00
14041;BME280;7095;51.388;6.196;2023-07-31T10:43:25;110548.00;;;-145.32;100.00
14041;BME280;7095;51.388;6.196;2023-07-31T10:45:54;110806.75;;;-145.32;100.00
14041;BME280;7095;51.388;6.196;2023-07-31T10:48:23;110030.59;;;-145.32;100.00
14041;BME280;7095;51.388;6.196;2023-07-31T10:50:54;110548.00;;;-145.32;100.00
14041;BME280;7095;51.388;6.196;2023-07-31T10:53:24;110548.00;;;-145.32;100.00
14041;BME280;7095;51.388;6.196;2023-07-31T10:55:57;110548.00;;;-145.32;100.00
14041;BME280;7095;51.388;6.196;2023-07-31T10:58:28;111065.50;;;-145.32;100.00
14041;BME280;7095;51.388;6.196;2023-07-31T11:01:00;111583.06;;;-145.32;100.00
14041;BME280;7095;51.388;6.196;2023-07-31T11:03:43;110289.28;;;-145.32;100.00
14041;BME280;7095;51.388;6.196;2023-07-31T11:06:12;111065.50;;;-145.32;100.00
14041;BME280;7095;51.388;6.196;2023-07-31T11:08:46;110548.00;;;-145.32;100.00
14041;BME280;7095;51.388;6.196;2023-07-31T11:11:16;110289.28;;;-145.32;100.00
14041;BME280;7095;51.388;6.196;2023-07-31T11:13:47;109771.94;;;-145.32;100.00
14041;BME280;7095;51.388;6.196;2023-07-31T11:16:19;108478.84;;;-145.32;100.00
14041;BME280;7095;51.388;6.196;2023-07-31T11:18:49;108220.28;;;-145.32;100.00
14041;BME280;7095;51.388;6.196;2023-07-31T11:21:20;107444.69;;;-145.32;100.00
14041;BME280;7095;51.388;6.196;2023-07-31T11:23:49;107186.22;;;-145.32;100.00
14041;BME280;7095;51.388;6.196;2023-07-31T11:26:19;106152.47;;;-145.32;100.00
14041;BME280;7095;51.388;6.196;2023-07-31T11:28:50;105377.34;;;-145.32;100.00
14041;BME280;7095;51.388;6.196;2023-07-31T11:31:19;105119.03;;;-145.32;100.00
14041;BME280;7095;51.388;6.196;2023-07-31T11:33:48;104602.44;;;-145.32;100.00
14041;BME280;7095;51.388;6.196;2023-07-31T11:36:17;105119.03;;;-145.32;100.00
14041;BME280;7095;51.388;6.196;2023-07-31T11:38:46;104344.16;;;-145.32;100.00
14041;BME280;7095;51.388;6.196;2023-07-31T11:41:16;104085.91;;;-145.32;100.00
14041;BME280;7095;51.388;6.196;2023-07-31T11:43:45;104085.91;;;-145.32;100.00
14041;BME280;7095;51.388;6.196;2023-07-31T11:46:16;103827.66;;;-145.32;100.00
14041;BME280;7095;51.388;6.196;2023-07-31T11:48:46;103569.44;;;-145.32;100.00
14041;BME280;7095;51.388;6.196;2023-07-31T11:51:15;103827.66;;;-145.32;100.00
14041;BME280;7095;51.388;6.196;2023-07-31T11:53:45;103311.25;;;-145.32;100.00
14041;BME280;7095;51.388;6.196;2023-07-31T11:56:18;101762.47;;;-145.32;100.00
14041;BME280;7095;51.388;6.196;2023-07-31T11:58:49;101504.38;;;-145.32;100.00
14041;BME280;7095;51.388;6.196;2023-07-31T12:01:21;100988.31;;;-145.32;100.00
14041;BME280;7095;51.388;6.196;2023-07-31T12:03:50;101246.34;;;-145.32;100.00
14041;BME280;7095;51.388;6.196;2023-07-31T12:06:20;100472.31;;;-145.32;100.00
14041;BME280;7095;51.388;6.196;2023-07-31T12:08:49;99956.41;;;-145.32;100.00
14041;BME280;7095;51.388;6.196;2023-07-31T12:11:18;99956.41;;;-145.32;100.00
14041;BME280;7095;51.388;6.196;2023-07-31T12:13:46;100472.31;;;-145.32;100.00
14041;BME280;7095;51.388;6.196;2023-07-31T12:16:15;100988.31;;;-145.32;100.00
14041;BME280;7095;51.388;6.196;2023-07-31T12:18:45;100988.31;;;-145.32;100.00
14041;BME280;7095;51.388;6.196;2023-07-31T12:21:17;101762.47;;;-145.32;100.00
14041;BME280;7095;51.388;6.196;2023-07-31T12:23:48;101762.47;;;-145.32;100.00
14041;BME280;7095;51.388;6.196;2023-07-31T12:26:16;100988.31;;;-145.32;100.00
14041;BME280;7095;51.388;6.196;2023-07-31T12:28:46;100988.31;;;-145.32;100.00
14041;BME280;7095;51.388;6.196;2023-07-31T12:31:16;100730.31;;;-145.32;100.00
14041;BME280;7095;51.388;6.196;2023-07-31T12:33:48;100214.34;;;-145.32;100.00
14041;BME280;7095;51.388;6.196;2023-07-31T12:36:20;100730.31;;;-145.32;100.00
14041;BME280;7095;51.388;6.196;2023-07-31T12:38:49;100472.31;;;-145.32;100.00
14041;BME280;7095;51.388;6.196;2023-07-31T12:41:18;99956.41;;;-145.32;100.00